Time;durP1;ratioP1;P1;durP2;ratioP2;P2;SDS_P1;SDS_P2;PMS_P1;PMS_P2;Temp;Humidity;BMP_temperature;BMP_pressure;BME280_temperature;BME280_humidity;BME280_pressure;Samples;Min_cycle;Max_cycle;Signal;HPM_P1;HPM_P2
2022/05/27 00:02:19;;;;;;;;;3.00;1.00;;;;;18.09;50.53;102200.88;5059745;28;45238;-53
2022/05/27 00:04:45;;;;;;;;;0.00;0.00;;;;;18.06;50.18;102188.56;5059729;28;45468;-43
2022/05/27 00:07:10;;;;;;;;;0.00;0.00;;;;;18.07;50.34;102184.84;5060047;28;45396;-64
2022/05/27 00:09:35;;;;;;;;;2.00;2.00;;;;;18.06;50.15;102182.31;5060132;28;46635;-63
2022/05/27 00:12:01;;;;;;;;;1.25;1.25;;;;;18.07;50.24;102184.84;5060370;28;45443;-53
2022/05/27 00:14:26;;;;;;;;;1.33;1.33;;;;;18.09;50.46;102192.78;5060027;28;45348;-44
2022/05/27 00:16:52;;;;;;;;;1.00;1.00;;;;;18.09;50.45;102182.84;5059797;28;45342;-63
2022/05/27 00:19:17;;;;;;;;;1.00;1.00;;;;;18.07;50.33;102184.84;5059153;28;46132;-46
2022/05/27 00:21:43;;;;;;;;;1.00;1.00;;;;;18.03;50.75;102182.66;5059148;28;45367;-63
2022/05/27 00:24:08;;;;;;;;;1.00;1.00;;;;;17.99;50.88;102183.97;5059529;28;45596;-44
2022/05/27 00:26:34;;;;;;;;;2.00;2.00;;;;;17.97;50.71;102180.59;5059378;28;45618;-56
2022/05/27 00:28:59;;;;;;;;;1.00;1.00;;;;;17.91;50.94;102169.47;5059128;28;47186;-65
2022/05/27 00:31:25;;;;;;;;;1.00;1.00;;;;;17.87;51.08;102180.72;5059168;28;45527;-62
2022/05/27 00:33:50;;;;;;;;;2.00;2.00;;;;;17.82;51.43;102175.78;5059454;28;45364;-66
2022/05/27 00:36:16;;;;;;;;;1.33;1.00;;;;;17.77;51.40;102158.44;5059753;28;45313;-52
2022/05/27 00:38:43;;;;;;;;;2.67;1.67;;;;;17.79;51.57;102164.53;5059258;28;46156;-54
2022/05/27 00:41:09;;;;;;;;;1.75;1.00;;;;;17.82;51.64;102165.03;5059024;28;45340;-45
2022/05/27 00:43:35;;;;;;;;;0.50;0.50;;;;;17.78;51.56;102162.81;5059365;28;45412;-45
2022/05/27 00:46:11;;;;;;;;;1.00;1.00;;;;;17.71;51.62;102163.44;5059177;28;45516;-47
2022/05/27 00:48:38;;;;;;;;;2.67;1.00;;;;;17.57;52.13;102147.00;5058986;28;45448;-46
2022/05/27 00:51:14;;;;;;;;;1.67;1.00;;;;;17.51;52.21;102147.66;5059094;28;45303;-43
2022/05/27 00:53:45;;;;;;;;;2.00;0.33;;;;;17.43;52.31;102143.06;5058250;28;45365;-44
2022/05/27 00:56:15;;;;;;;;;1.33;1.33;;;;;17.37;52.38;102154.47;5058953;28;45532;-43
2022/05/27 00:58:48;;;;;;;;;2.00;0.33;;;;;17.25;52.26;102142.28;5058962;28;46198;-61
2022/05/27 01:01:14;;;;;;;;;1.00;1.00;;;;;17.13;53.26;102142.50;5057985;28;45402;-44
2022/05/27 01:03:40;;;;;;;;;1.00;1.00;;;;;17.11;52.88;102141.00;5058928;28;45372;-47
2022/05/27 01:06:06;;;;;;;;;1.33;1.33;;;;;17.12;53.33;102156.94;5058861;28;45388;-45
2022/05/27 01:08:32;;;;;;;;;0.00;0.00;;;;;17.08;53.76;102154.72;5058699;28;45348;-43
2022/05/27 01:11:22;;;;;;;;;1.33;1.33;;;;;17.02;53.60;102149.97;5058816;28;45184;-43
2022/05/27 01:14:14;;;;;;;;;1.00;1.00;;;;;16.99;53.80;102155.66;5058979;28;45458;-44
2022/05/27 01:16:54;;;;;;;;;4.33;2.00;;;;;16.94;54.04;102150.75;5058709;28;45462;-44
2022/05/27 01:22:46;;;;;;;;;1.67;1.67;;;;;16.87;54.27;102155.03;5058547;28;45278;-42
2022/05/27 01:25:27;;;;;;;;;1.00;1.00;;;;;16.86;54.82;102151.53;5058966;28;45440;-43
2022/05/27 01:27:55;;;;;;;;;3.33;1.00;;;;;16.85;54.69;102154.34;5058923;28;45579;-44
2022/05/27 01:30:26;;;;;;;;;1.00;1.00;;;;;16.84;54.97;102152.66;5058115;28;45476;-44
2022/05/27 01:33:03;;;;;;;;;0.33;0.33;;;;;16.82;55.01;102154.66;5058532;28;45245;-43
2022/05/27 01:35:54;;;;;;;;;1.33;1.33;;;;;16.79;54.66;102146.91;5058559;28;45409;-45
2022/05/27 01:38:39;;;;;;;;;1.67;1.67;;;;;16.78;55.02;102150.59;5058784;28;45182;-44
2022/05/27 01:41:19;;;;;;;;;0.00;0.00;;;;;16.75;54.66;102145.53;5058276;28;45643;-46
2022/05/27 01:43:56;;;;;;;;;1.00;1.00;;;;;16.60;55.15;102123.66;5058268;28;45348;-42
2022/05/27 01:46:41;;;;;;;;;1.33;1.33;;;;;16.68;55.17;102143.41;5058226;28;45375;-41
2022/05/27 01:49:48;;;;;;;;;0.00;0.00;;;;;16.65;55.29;102141.03;5058621;28;45465;-42
2022/05/27 01:52:26;;;;;;;;;1.00;1.00;;;;;16.64;55.44;102146.53;5056618;28;47082;-44
2022/05/27 01:54:55;;;;;;;;;3.67;1.00;;;;;16.62;55.19;102144.03;5057988;28;45432;-44
2022/05/27 01:57:39;;;;;;;;;1.00;1.00;;;;;16.60;55.08;102145.16;5058253;28;45331;-50
2022/05/27 02:00:10;;;;;;;;;3.00;1.00;;;;;16.58;55.60;102148.00;5058412;28;45312;-43
2022/05/27 02:02:42;;;;;;;;;2.67;1.00;;;;;16.54;54.96;102146.63;5057763;28;45428;-62
2022/05/27 02:05:16;;;;;;;;;6.00;1.33;;;;;16.48;55.26;102141.03;5057960;28;45341;-45
2022/05/27 02:07:53;;;;;;;;;1.67;1.67;;;;;16.47;54.98;102145.53;5057220;28;45306;-43
2022/05/27 02:10:34;;;;;;;;;0.67;0.00;;;;;16.45;54.98;102150.22;5058411;28;45479;-46
2022/05/27 02:13:15;;;;;;;;;4.33;2.33;;;;;16.35;55.25;102135.97;5057803;28;46441;-44
2022/05/27 02:15:44;;;;;;;;;3.00;2.00;;;;;16.41;55.64;102143.47;5057649;28;45428;-51
2022/05/27 02:18:17;;;;;;;;;3.33;1.00;;;;;16.41;55.29;102140.78;5057861;28;45437;-42
2022/05/27 02:21:07;;;;;;;;;1.00;1.00;;;;;16.39;55.39;102140.06;5058019;28;45480;-44
2022/05/27 02:23:51;;;;;;;;;1.00;1.00;;;;;16.39;54.96;102142.75;5057415;28;46121;-48
2022/05/27 02:26:20;;;;;;;;;2.00;2.00;;;;;16.42;55.69;102145.13;5057156;28;45414;-43
2022/05/27 02:28:52;;;;;;;;;1.00;1.00;;;;;16.43;55.87;102141.44;5057803;28;45308;-42
2022/05/27 02:31:23;;;;;;;;;2.00;0.00;;;;;16.45;55.29;102134.94;5057870;28;45309;-47
2022/05/27 02:37:08;;;;;;;;;1.00;1.00;;;;;16.63;55.46;102140.31;5057515;28;45258;-43
2022/05/27 02:39:35;;;;;;;;;1.67;1.00;;;;;16.69;55.32;102141.59;5057459;28;45266;-44
2022/05/27 02:42:26;;;;;;;;;1.33;1.00;;;;;16.71;55.33;102140.41;5057811;28;45293;-44
2022/05/27 02:45:09;;;;;;;;;5.33;2.00;;;;;16.73;55.06;102140.31;5057336;28;45656;-46
2022/05/27 02:47:50;;;;;;;;;1.00;1.00;;;;;16.77;55.01;102139.00;5055886;28;45391;-45
2022/05/27 02:50:26;;;;;;;;;1.00;1.00;;;;;16.73;54.94;102128.69;5057240;28;45581;-59
2022/05/27 02:53:06;;;;;;;;;2.00;2.00;;;;;16.80;54.92;102140.53;5057534;28;45337;-43
2022/05/27 02:55:52;;;;;;;;;1.67;1.00;;;;;16.81;55.17;102145.75;5057059;28;46591;-52
2022/05/27 02:58:18;;;;;;;;;3.33;1.00;;;;;16.82;55.23;102142.06;5057039;28;45405;-44
2022/05/27 03:00:45;;;;;;;;;2.00;2.00;;;;;16.79;54.90;102133.47;5057223;28;45230;-43
2022/05/27 03:03:10;;;;;;;;;1.00;1.00;;;;;16.80;55.24;102141.38;5057219;28;45507;-50
2022/05/27 03:05:47;;;;;;;;;1.00;1.00;;;;;16.83;55.13;102137.53;5056817;28;46261;-45
2022/05/27 03:08:31;;;;;;;;;2.67;1.67;;;;;16.77;55.18;102130.06;5057014;28;45468;-62
2022/05/27 03:11:03;;;;;;;;;3.00;2.00;;;;;16.83;55.36;102145.59;5057244;28;45269;-43
2022/05/27 03:14:12;;;;;;;;;2.00;1.00;;;;;16.77;55.15;102140.81;5057038;28;45403;-54
2022/05/27 03:16:47;;;;;;;;;1.33;1.00;;;;;16.73;55.33;102144.81;5057605;28;45945;-49
2022/05/27 03:19:53;;;;;;;;;9.67;3.67;;;;;16.71;55.71;102143.09;5063720;28;45285;-46
2022/05/27 03:23:11;;;;;;;;;1.00;1.00;;;;;16.69;55.44;102141.59;5063810;28;45374;-48
2022/05/27 03:25:48;;;;;;;;;4.33;2.00;;;;;16.67;55.78;102144.41;5021486;28;45477;-51
2022/05/27 03:28:42;;;;;;;;;4.33;1.67;;;;;16.65;55.93;102146.41;5021013;28;45413;-42
2022/05/27 03:31:35;;;;;;;;;2.67;1.00;;;;;16.62;56.31;102138.66;4962014;28;45397;-44
2022/05/27 03:34:12;;;;;;;;;2.00;2.00;;;;;16.68;55.61;102146.09;4962143;28;45533;-43
2022/05/27 03:36:58;;;;;;;;;2.00;2.00;;;;;16.67;55.68;102141.72;4962270;28;45539;-61
2022/05/27 03:39:36;;;;;;;;;4.00;1.00;;;;;16.65;55.31;102143.72;4961831;28;46469;-43
2022/05/27 03:42:06;;;;;;;;;3.67;2.33;;;;;16.61;55.66;102133.44;4962074;28;45459;-46
2022/05/27 03:44:32;;;;;;;;;4.33;3.67;;;;;16.58;55.74;102134.56;4962016;28;45471;-60
2022/05/27 03:46:59;;;;;;;;;2.00;1.67;;;;;16.58;55.82;102144.47;4961823;28;45439;-45
2022/05/27 03:49:25;;;;;;;;;2.00;2.00;;;;;16.55;55.78;102136.72;4961833;28;47200;-47
2022/05/27 03:51:50;;;;;;;;;2.00;2.00;;;;;16.53;55.34;102142.25;4961683;28;45459;-48
2022/05/27 03:54:16;;;;;;;;;1.33;1.33;;;;;16.52;55.65;102148.63;4961883;28;45503;-51
2022/05/27 03:56:42;;;;;;;;;5.33;2.00;;;;;16.48;56.02;102143.72;4982878;28;45587;-44
2022/05/27 03:59:10;;;;;;;;;2.33;2.33;;;;;16.50;55.60;102150.59;5020830;28;46083;-48
2022/05/27 04:01:38;;;;;;;;;4.00;4.00;;;;;16.49;55.75;102150.75;5020769;28;45406;-56
2022/05/27 04:04:06;;;;;;;;;4.00;2.67;;;;;16.50;56.01;102150.59;5020838;28;45240;-44
2022/05/27 04:06:32;;;;;;;;;4.00;4.00;;;;;16.50;55.90;102141.69;5020803;28;45415;-45
2022/05/27 04:08:58;;;;;;;;;4.67;4.00;;;;;16.49;55.71;102145.38;5056357;28;46240;-45
2022/05/27 04:11:25;;;;;;;;;3.33;2.67;;;;;16.49;55.76;102143.56;5061972;28;45386;-42
2022/05/27 04:13:51;;;;;;;;;3.00;3.00;;;;;16.49;55.84;102150.75;5063410;28;45444;-43
2022/05/27 04:16:18;;;;;;;;;5.67;3.33;;;;;16.50;55.86;102155.97;5063726;28;45246;-43
2022/05/27 04:18:43;;;;;;;;;5.00;4.33;;;;;16.52;55.67;102147.75;5062795;28;47246;-43
2022/05/27 04:21:09;;;;;;;;;5.67;2.67;;;;;16.52;55.87;102154.00;5063172;28;45226;-42
2022/05/27 04:23:35;;;;;;;;;3.00;3.00;;;;;16.53;55.96;102154.84;5063301;28;45192;-42
2022/05/27 04:26:01;;;;;;;;;6.67;5.00;;;;;16.54;56.04;102152.00;5063054;28;45360;-46
2022/05/27 04:28:26;;;;;;;;;6.00;4.67;;;;;16.57;55.98;102158.91;5060062;28;45816;-46
2022/05/27 04:30:51;;;;;;;;;5.00;5.00;;;;;16.56;56.24;102168.81;5059072;28;45362;-52
2022/05/27 04:33:17;;;;;;;;;6.33;3.00;;;;;16.59;56.17;102162.28;5059485;28;45459;-43
2022/05/27 04:35:42;;;;;;;;;7.33;6.00;;;;;16.58;56.23;102166.81;5059692;28;45352;-45
2022/05/27 04:38:08;;;;;;;;;7.33;5.00;;;;;16.61;55.94;102171.03;5059085;28;45281;-45
2022/05/27 04:40:35;;;;;;;;;7.33;6.00;;;;;16.57;56.39;102159.75;5059260;28;45350;-60
2022/05/27 04:43:02;;;;;;;;;9.67;9.00;;;;;16.56;55.92;102166.13;5059165;28;46370;-44
2022/05/27 04:45:28;;;;;;;;;10.00;7.33;;;;;16.53;56.53;102166.44;5059468;28;45467;-42
2022/05/27 04:47:55;;;;;;;;;10.33;9.00;;;;;16.52;56.23;102164.75;5058794;28;45322;-51
2022/05/27 04:50:20;;;;;;;;;9.33;8.33;;;;;16.51;56.43;102162.19;5059059;28;45384;-50
2022/05/27 04:52:46;;;;;;;;;12.67;9.67;;;;;16.52;56.56;102162.06;5059163;28;45424;-55
2022/05/27 04:55:14;;;;;;;;;11.33;10.00;;;;;16.53;56.41;102168.28;5059055;28;45305;-46
2022/05/27 04:57:52;;;;;;;;;12.33;10.67;;;;;16.54;56.89;102162.72;5058849;28;46074;-47
2022/05/27 05:00:23;;;;;;;;;11.33;11.33;;;;;16.54;56.65;102162.72;5057930;28;45470;-43
2022/05/27 05:02:48;;;;;;;;;9.33;6.00;;;;;16.56;56.77;102171.50;5059041;28;45468;-46
2022/05/27 05:05:17;;;;;;;;;11.00;5.00;;;;;16.52;57.02;102153.13;5059071;28;45250;-57
2022/05/27 05:07:45;;;;;;;;;10.00;7.00;;;;;16.58;56.72;102165.97;5058748;28;46107;-45
2022/05/27 05:10:13;;;;;;;;;10.33;6.00;;;;;16.57;56.71;102157.06;5058839;28;45247;-46
2022/05/27 05:12:39;;;;;;;;;10.67;9.00;;;;;16.59;56.69;102164.97;5059549;28;45492;-43
2022/05/27 05:15:05;;;;;;;;;11.67;5.67;;;;;16.59;56.61;102159.59;5059740;28;45290;-44
2022/05/27 05:17:30;;;;;;;;;6.00;6.00;;;;;16.57;56.76;102169.66;5059710;28;46214;-45
2022/05/27 05:19:56;;;;;;;;;11.67;8.33;;;;;16.57;56.91;102161.59;5059186;28;45280;-57
2022/05/27 05:22:22;;;;;;;;;10.67;9.33;;;;;16.49;56.51;102159.66;5059182;28;45376;-67
2022/05/27 05:24:54;;;;;;;;;7.67;7.67;;;;;16.54;57.07;102169.94;5059310;28;45350;-66
2022/05/27 05:27:22;;;;;;;;;9.00;6.67;;;;;16.53;57.00;102177.16;5058811;28;46961;-49
2022/05/27 05:29:47;;;;;;;;;7.67;7.67;;;;;16.52;56.95;102163.88;5058593;28;45527;-45
2022/05/27 05:32:12;;;;;;;;;8.00;6.00;;;;;16.53;57.21;102174.47;5058868;28;45933;-66
2022/05/27 05:34:38;;;;;;;;;13.00;7.00;;;;;16.55;57.40;102172.47;5058753;28;45381;-66
2022/05/27 05:37:04;;;;;;;;;11.33;8.33;;;;;16.60;57.41;102172.91;5058276;28;45513;-64
2022/05/27 05:39:29;;;;;;;;;13.00;8.33;;;;;16.54;57.35;102146.63;5058231;28;45411;-66
2022/05/27 05:42:01;;;;;;;;;10.00;10.00;;;;;16.67;57.39;102168.59;5058423;28;45424;-60
2022/05/27 05:44:26;;;;;;;;;13.33;10.33;;;;;16.71;57.41;102169.13;5058744;28;45439;-61
2022/05/27 05:46:52;;;;;;;;;10.67;6.67;;;;;16.71;57.01;102169.97;5058298;28;46291;-64
2022/05/27 05:49:18;;;;;;;;;12.00;9.00;;;;;16.72;57.34;102173.50;5058214;28;45565;-49
2022/05/27 05:51:43;;;;;;;;;9.67;9.67;;;;;16.66;57.31;102160.69;5058688;28;45386;-60
2022/05/27 05:54:08;;;;;;;;;8.33;8.33;;;;;16.70;57.48;102164.75;5058605;28;45291;-64
2022/05/27 05:56:34;;;;;;;;;16.00;9.33;;;;;16.75;57.39;102172.41;5058228;28;46359;-59
2022/05/27 05:59:00;;;;;;;;;10.33;9.67;;;;;16.76;57.56;102172.22;5058057;28;45324;-43
2022/05/27 06:01:26;;;;;;;;;12.00;11.00;;;;;16.76;57.34;102163.31;5058119;28;45562;-46
2022/05/27 06:03:51;;;;;;;;;8.67;8.67;;;;;16.75;57.34;102170.53;5058428;28;45357;-61
2022/05/27 06:06:17;;;;;;;;;11.33;10.00;;;;;16.79;57.45;102171.09;5057778;28;45194;-43
2022/05/27 06:08:43;;;;;;;;;14.00;11.67;;;;;16.79;57.31;102169.25;5057843;28;45372;-45
2022/05/27 06:11:08;;;;;;;;;12.33;10.33;;;;;16.79;57.54;102171.09;5058199;28;45461;-44
2022/05/27 06:13:35;;;;;;;;;15.67;14.00;;;;;16.69;57.36;102155.00;5057053;28;45469;-49
2022/05/27 06:16:02;;;;;;;;;14.67;13.00;;;;;16.77;57.42;102165.88;5058034;28;46185;-43
2022/05/27 06:18:28;;;;;;;;;17.67;11.33;;;;;16.77;57.24;102168.56;5057608;28;45371;-43
2022/05/27 06:20:53;;;;;;;;;17.67;9.33;;;;;16.76;57.89;102180.28;5058043;28;45250;-43
2022/05/27 06:23:19;;;;;;;;;14.00;12.00;;;;;16.75;58.13;102173.22;5058902;28;45206;-45
2022/05/27 06:25:44;;;;;;;;;11.67;11.67;;;;;16.75;57.72;102175.09;5058277;28;45412;-62
2022/05/27 06:36:21;;;;;;;;;10.67;10.67;;;;;16.75;57.72;102180.44;5057421;28;45468;-43
2022/05/27 06:38:47;;;;;;;;;7.33;6.00;;;;;16.72;57.59;102176.19;5057264;28;45332;-50
2022/05/27 06:41:13;;;;;;;;;10.67;5.00;;;;;16.65;57.78;102170.59;5057606;28;45369;-61
2022/05/27 06:43:38;;;;;;;;;6.00;4.67;;;;;16.76;57.97;102176.75;5057840;28;45258;-66
2022/05/27 06:46:04;;;;;;;;;4.67;3.33;;;;;16.78;58.34;102180.16;5055813;28;46053;-62
2022/05/27 06:48:29;;;;;;;;;8.67;5.00;;;;;16.80;58.13;102173.63;5057285;28;45421;-63
2022/05/27 06:50:55;;;;;;;;;4.00;4.00;;;;;16.81;58.97;102186.09;5057148;28;45222;-67
2022/05/27 06:53:20;;;;;;;;;3.00;2.33;;;;;16.85;58.42;102191.97;5056863;28;45405;-62
2022/05/27 06:55:52;;;;;;;;;4.00;2.33;;;;;16.87;57.96;102185.47;5057216;28;46287;-51
2022/05/27 06:58:17;;;;;;;;;2.33;2.33;;;;;16.78;57.89;102166.72;5056905;28;45519;-65
2022/05/27 07:00:43;;;;;;;;;3.67;3.67;;;;;16.87;57.77;102195.38;5057286;28;45430;-63
2022/05/27 07:03:09;;;;;;;;;4.00;3.00;;;;;16.84;57.57;102191.13;5057358;28;45476;-62
2022/05/27 07:05:35;;;;;;;;;5.00;3.67;;;;;16.85;57.73;102183.91;5056704;28;46183;-52
2022/05/27 07:08:03;;;;;;;;;3.67;3.67;;;;;16.87;58.30;102190.00;5057147;28;45512;-64
2022/05/27 07:10:29;;;;;;;;;5.00;4.00;;;;;16.85;58.03;102184.75;5057036;28;45403;-67
2022/05/27 07:12:56;;;;;;;;;6.00;5.33;;;;;16.90;58.23;102193.22;5057380;28;45521;-61
2022/05/27 07:15:21;;;;;;;;;6.33;5.00;;;;;16.90;58.63;102195.06;5057040;28;46107;-49
2022/05/27 07:17:46;;;;;;;;;6.33;6.33;;;;;16.90;58.02;102198.59;5055776;28;45554;-49
2022/05/27 07:20:12;;;;;;;;;5.00;4.67;;;;;16.93;57.97;102195.59;5057155;28;45375;-43
2022/05/27 07:22:37;;;;;;;;;7.00;5.67;;;;;17.00;58.27;102200.38;5057316;28;45473;-65
2022/05/27 07:25:03;;;;;;;;;9.67;8.00;;;;;17.02;58.45;102204.56;5057307;28;45482;-44
2022/05/27 07:27:28;;;;;;;;;6.67;6.67;;;;;17.06;58.42;102197.03;5057143;28;45157;-52
2022/05/27 07:29:54;;;;;;;;;10.00;7.00;;;;;17.10;57.93;102193.88;5057190;28;45357;-65
2022/05/27 07:32:19;;;;;;;;;9.00;8.67;;;;;17.22;58.00;102191.81;5057132;28;45321;-62
2022/05/27 07:34:46;;;;;;;;;13.00;7.67;;;;;17.34;57.57;102182.50;5057887;28;45559;-63
2022/05/27 07:37:12;;;;;;;;;13.00;7.67;;;;;17.47;57.32;102187.47;5057267;28;45309;-47
2022/05/27 07:39:37;;;;;;;;;9.33;9.33;;;;;17.72;56.61;102201.97;5056858;28;45221;-61
2022/05/27 07:42:03;;;;;;;;;10.67;10.67;;;;;17.88;56.45;102195.88;5056803;28;45422;-44
2022/05/27 07:44:29;;;;;;;;;13.33;9.00;;;;;18.01;55.89;102190.06;5056550;28;45404;-68
2022/05/27 07:46:54;;;;;;;;;12.33;12.00;;;;;18.14;55.56;102193.97;5056532;28;45375;-42
2022/05/27 07:49:20;;;;;;;;;10.33;8.33;;;;;18.24;55.27;102191.16;5056661;28;45448;-46
2022/05/27 07:51:46;;;;;;;;;10.33;9.00;;;;;18.29;55.14;102183.47;5056853;28;45323;-54
2022/05/27 07:54:12;;;;;;;;;14.00;9.00;;;;;18.37;55.04;102185.31;5056357;28;45465;-47
2022/05/27 07:56:39;;;;;;;;;10.67;8.67;;;;;18.44;54.75;102178.28;5056584;28;45379;-44
2022/05/27 07:59:05;;;;;;;;;20.67;14.33;;;;;18.55;54.97;102174.44;5056431;28;45248;-44
2022/05/27 08:01:31;;;;;;;;;15.67;14.00;;;;;18.73;54.46;102187.81;5056582;28;45366;-44
2022/05/27 08:03:57;;;;;;;;;14.00;11.00;;;;;18.83;54.51;102186.66;5058110;28;47222;-43
2022/05/27 08:06:23;;;;;;;;;14.00;7.33;;;;;18.87;54.18;102187.16;5059288;28;45602;-43
2022/05/27 08:08:48;;;;;;;;;11.67;8.00;;;;;18.80;54.53;102188.88;5060029;28;45551;-60
2022/05/27 08:11:14;;;;;;;;;8.33;7.33;;;;;18.82;54.40;102187.66;5060013;28;45394;-47
2022/05/27 08:13:40;;;;;;;;;6.67;6.67;;;;;18.82;54.13;102181.44;5058302;28;46087;-51
2022/05/27 08:16:06;;;;;;;;;9.00;7.33;;;;;18.90;54.26;102187.69;5063824;28;45309;-43
2022/05/27 08:18:31;;;;;;;;;12.67;9.33;;;;;18.93;54.17;102186.53;5044518;28;45375;-44
2022/05/27 08:20:57;;;;;;;;;9.67;9.67;;;;;18.83;53.94;102185.81;5079812;28;45396;-50
2022/05/27 08:23:24;;;;;;;;;10.33;7.33;;;;;18.86;54.15;102186.31;5078547;28;46447;-43
2022/05/27 08:25:50;;;;;;;;;13.33;7.67;;;;;18.83;53.83;102193.91;5079470;28;45318;-42
2022/05/27 08:28:15;;;;;;;;;7.00;6.67;;;;;18.79;54.36;102188.00;5079362;28;45237;-43
2022/05/27 08:30:40;;;;;;;;;7.33;7.00;;;;;18.77;54.22;102186.50;5079670;28;45191;-42
2022/05/27 08:33:06;;;;;;;;;9.33;7.00;;;;;18.75;54.70;102177.72;5079102;28;46371;-42
2022/05/27 08:38:28;;;;;;;;;7.33;5.33;;;;;18.74;54.49;102181.41;5073428;28;45490;-53
2022/05/27 08:41:25;;;;;;;;;10.33;8.00;;;;;18.81;54.30;102188.69;5079505;28;45403;-42
2022/05/27 08:44:19;;;;;;;;;3.75;3.75;;;;;18.80;54.47;102191.56;5079107;28;46156;-44
2022/05/27 08:47:00;;;;;;;;;4.33;4.00;;;;;18.77;54.55;102184.63;5079324;27;45398;-44
2022/05/27 08:49:33;;;;;;;;;6.67;5.33;;;;;18.76;54.63;102187.50;5079121;27;45344;-44
2022/05/27 08:52:04;;;;;;;;;6.33;5.67;;;;;18.75;54.59;102188.50;5079374;27;45183;-47
2022/05/27 08:54:37;;;;;;;;;6.67;5.00;;;;;18.68;54.80;102199.91;5079001;27;45378;-51
2022/05/27 08:59:57;;;;;;;;;6.33;6.00;;;;;18.69;55.07;102189.97;5079075;28;45388;-43
2022/05/27 09:02:31;;;;;;;;;5.67;5.67;;;;;18.62;55.43;102178.16;5078989;27;45484;-43
2022/05/27 09:05:08;;;;;;;;;7.00;7.00;;;;;18.63;55.52;102183.41;5078698;27;46179;-43
2022/05/27 09:07:46;;;;;;;;;7.33;6.00;;;;;18.60;55.54;102188.25;5078794;27;45270;-43
2022/05/27 09:10:41;;;;;;;;;3.67;3.67;;;;;18.59;55.93;102192.81;5078770;27;45390;-42
2022/05/27 09:13:24;;;;;;;;;5.00;5.00;;;;;18.57;55.88;102200.22;5079459;27;45517;-42
2022/05/27 09:16:12;;;;;;;;;12.67;5.00;;;;;18.56;56.14;102193.13;5077382;27;46100;-49
2022/05/27 09:18:58;;;;;;;;;7.33;4.67;;;;;18.65;56.09;102202.09;5078792;27;45374;-44
2022/05/27 09:21:36;;;;;;;;;6.00;5.00;;;;;18.72;56.05;102200.47;5078539;27;45411;-42
2022/05/27 09:24:40;;;;;;;;;3.67;3.67;;;;;18.75;56.21;102200.16;5078864;27;45478;-42
2022/05/27 09:27:14;;;;;;;;;9.33;5.00;;;;;18.76;56.19;102191.03;5073377;28;47204;-42
2022/05/27 09:30:15;;;;;;;;;4.00;3.00;;;;;18.82;56.09;102195.75;5077735;27;45470;-42
2022/05/27 09:32:53;;;;;;;;;5.67;4.33;;;;;18.92;55.94;102196.47;5077570;28;45293;-44
2022/05/27 09:35:32;;;;;;;;;6.67;6.67;;;;;19.04;55.96;102198.81;5078964;27;45664;-43
2022/05/27 09:38:03;;;;;;;;;6.33;5.00;;;;;19.15;55.58;102193.09;5077786;27;45456;-45
2022/05/27 09:40:37;;;;;;;;;4.33;4.33;;;;;19.24;55.26;102186.69;5079153;27;45483;-43
2022/05/27 09:43:17;;;;;;;;;4.67;4.00;;;;;19.37;55.24;102183.50;5079124;27;45844;-46
2022/05/27 09:45:43;;;;;;;;;5.75;4.25;;;;;19.43;55.03;102188.22;5078500;28;45540;-41
2022/05/27 09:48:10;;;;;;;;;5.25;4.50;;;;;19.56;55.00;102187.72;5077815;27;46245;-42
2022/05/27 09:50:42;;;;;;;;;5.50;5.00;;;;;19.61;54.54;102188.91;5078095;27;45360;-43
2022/05/27 09:53:15;;;;;;;;;7.00;6.00;;;;;19.72;54.29;102192.25;5078077;27;45212;-45
2022/05/27 09:55:54;;;;;;;;;3.75;3.50;;;;;19.84;54.48;102190.88;5077456;27;45426;-43
2022/05/27 09:58:27;;;;;;;;;6.50;5.00;;;;;20.01;54.18;102192.50;5077698;28;45478;-48
2022/05/27 10:00:53;;;;;;;;;6.00;4.25;;;;;20.25;53.39;102188.06;5077838;27;45372;-43
2022/05/27 10:03:34;;;;;;;;;4.50;4.00;;;;;20.51;53.20;102188.63;5078139;27;45454;-43
2022/05/27 10:06:02;;;;;;;;;5.00;3.50;;;;;20.81;52.67;102186.91;5077808;27;45352;-43
2022/05/27 10:08:43;;;;;;;;;5.50;3.25;;;;;21.27;51.94;102178.78;5077627;28;45314;-41
2022/05/27 10:11:09;;;;;;;;;3.00;3.00;;;;;21.46;50.92;102182.91;5077911;27;45415;-43
2022/05/27 10:13:40;;;;;;;;;7.50;4.25;;;;;21.43;50.82;102183.25;5077848;28;45411;-44
2022/05/27 10:16:26;;;;;;;;;5.50;5.25;;;;;21.23;51.22;102155.81;5078029;27;45356;-44
2022/05/27 10:19:06;;;;;;;;;4.50;4.25;;;;;21.39;51.46;102174.66;5077710;27;46084;-42
2022/05/27 10:21:46;;;;;;;;;4.25;4.25;;;;;21.92;50.85;102169.22;5077709;28;45442;-45
2022/05/27 10:24:16;;;;;;;;;5.00;4.75;;;;;22.77;48.93;102157.78;5078096;27;45381;-48
2022/05/27 10:26:43;;;;;;;;;3.50;3.50;;;;;23.15;47.65;102155.66;5076593;27;45499;-42
2022/05/27 10:29:14;;;;;;;;;7.75;3.25;;;;;23.35;47.13;102150.41;5077450;27;46971;-52
2022/05/27 10:31:55;;;;;;;;;5.80;4.20;;;;;23.59;47.06;102149.09;5077668;27;45432;-42
2022/05/27 10:34:46;;;;;;;;;6.00;6.00;;;;;24.03;45.81;102147.09;5077663;27;45451;-44
2022/05/27 10:37:46;;;;;;;;;6.00;3.00;;;;;24.46;44.59;102155.03;5076441;28;45232;-44
2022/05/27 10:40:28;;;;;;;;;4.20;3.40;;;;;24.38;44.72;102150.59;5077386;28;45311;-44
2022/05/27 10:43:24;;;;;;;;;3.80;2.20;;;;;24.25;44.94;102147.81;5077319;28;45225;-42
2022/05/27 10:45:52;;;;;;;;;3.00;3.00;;;;;24.15;45.03;102150.91;5077544;27;45435;-43
2022/05/27 10:48:56;;;;;;;;;7.20;4.60;;;;;23.88;45.36;102150.75;5077586;27;45261;-43
2022/05/27 10:51:38;;;;;;;;;4.60;4.00;;;;;23.59;45.89;102159.13;5076936;27;46394;-43
2022/05/27 10:54:18;;;;;;;;;2.60;2.60;;;;;23.26;46.62;102157.00;5069686;28;45376;-45
2022/05/27 11:03:22;;;;;;;;;3.00;3.00;;;;;22.93;47.13;102153.16;5076854;28;45174;-43
2022/05/27 11:06:15;;;;;;;;;3.60;3.60;;;;;23.21;46.50;102155.91;5076796;27;45280;-45
2022/05/27 11:09:12;;;;;;;;;3.20;3.20;;;;;23.45;46.32;102150.03;5077076;27;45392;-45
2022/05/27 11:11:49;;;;;;;;;5.00;4.00;;;;;23.29;46.10;102153.88;5077467;27;45502;-42
2022/05/27 11:17:54;;;;;;;;;4.00;3.40;;;;;23.03;46.87;102159.94;5077058;28;45390;-41
2022/05/27 11:20:40;;;;;;;;;6.00;3.50;;;;;23.10;46.61;102157.28;5075486;27;45529;-42
2022/05/27 11:23:33;;;;;;;;;7.00;4.00;;;;;23.12;46.65;102150.59;5076755;27;45466;-42
2022/05/27 11:26:23;;;;;;;;;3.50;3.50;;;;;23.13;46.57;102146.00;5076552;28;45466;-45
2022/05/27 11:29:00;;;;;;;;;4.80;4.00;;;;;23.28;46.80;102145.94;5076490;27;45245;-45
2022/05/27 11:31:52;;;;;;;;;4.60;3.00;;;;;23.39;46.45;102148.13;5075661;27;45303;-45
2022/05/27 11:34:26;;;;;;;;;3.50;3.50;;;;;23.28;46.46;102135.91;5076802;27;45438;-42
2022/05/27 11:37:16;;;;;;;;;3.20;3.00;;;;;23.36;46.54;102143.91;5076357;27;45328;-43
2022/05/27 11:40:06;;;;;;;;;4.40;3.00;;;;;23.16;46.35;102121.19;5080055;27;45369;-43
2022/05/27 11:42:56;;;;;;;;;4.40;4.00;;;;;23.03;46.83;102140.94;5096201;27;45454;-43
2022/05/27 11:45:25;;;;;;;;;4.25;3.00;;;;;22.81;47.12;102139.25;5080650;27;45226;-45
2022/05/27 11:47:53;;;;;;;;;4.00;4.00;;;;;22.69;47.65;102128.06;5080129;27;45998;-43
2022/05/27 11:50:43;;;;;;;;;4.80;4.00;;;;;22.74;47.67;102132.91;5080286;28;45320;-40
2022/05/27 11:53:37;;;;;;;;;5.20;4.00;;;;;22.86;47.35;102128.63;5079796;27;45367;-41
2022/05/27 11:56:25;;;;;;;;;5.00;4.75;;;;;22.84;47.41;102138.84;5080098;27;45242;-43
2022/05/27 11:59:03;;;;;;;;;6.75;4.25;;;;;22.96;47.33;102134.59;5079619;27;47288;-43
2022/05/27 12:02:04;;;;;;;;;4.00;3.00;;;;;22.94;47.25;102138.56;5079949;27;45360;-41
2022/05/27 12:04:34;;;;;;;;;6.40;4.00;;;;;22.88;47.52;102137.41;5079658;27;45497;-41
2022/05/27 12:07:12;;;;;;;;;4.25;3.75;;;;;22.83;47.10;102132.56;5079985;28;45502;-41
2022/05/27 12:10:00;;;;;;;;;4.50;4.50;;;;;22.75;47.56;102134.56;5079570;27;46200;-41
2022/05/27 12:12:34;;;;;;;;;4.00;4.00;;;;;22.56;48.06;102122.50;5076104;28;45327;-42
2022/05/27 12:15:05;;;;;;;;;3.00;3.00;;;;;22.69;48.17;102129.94;5079759;27;45221;-42
2022/05/27 12:17:43;;;;;;;;;6.25;4.75;;;;;22.98;47.39;102121.69;5079941;27;45286;-46
2022/05/27 12:20:15;;;;;;;;;5.25;3.00;;;;;23.33;46.37;102125.31;5079016;27;45569;-43
2022/05/27 12:22:41;;;;;;;;;5.20;3.80;;;;;23.56;46.10;102127.78;5079288;27;45336;-47